Time;durP1;ratioP1;P1;durP2;ratioP2;P2;SDS_P1;SDS_P2;PMS_P1;PMS_P2;Temp;Humidity;BMP_temperature;BMP_pressure;BME280_temperature;BME280_humidity;BME280_pressure;Samples;Min_cycle;Max_cycle;Signal;HPM_P1;HPM_P2
2022/09/29 00:01:18;;;;;;;1.77;1.67;;;11.70;99.90;;;;;;6363928;28;20300;-66
2022/09/29 00:04:24;;;;;;;2.30;1.67;;;11.60;99.90;;;;;;6364424;28;20327;-67
2022/09/29 00:07:31;;;;;;;1.83;1.73;;;11.50;99.90;;;;;;6364158;28;20289;-67
2022/09/29 00:10:35;;;;;;;5.53;2.03;;;11.60;99.90;;;;;;6363897;28;20297;-67
2022/09/29 00:13:40;;;;;;;4.57;2.20;;;11.50;99.90;;;;;;6363745;28;20289;-67
2022/09/29 00:16:45;;;;;;;3.72;2.03;;;11.40;99.90;;;;;;6363682;28;20293;-67
2022/09/29 00:19:51;;;;;;;2.67;2.45;;;11.40;99.90;;;;;;6363714;28;20408;-67
2022/09/29 00:22:56;;;;;;;2.08;1.92;;;11.50;99.90;;;;;;6363444;28;20293;-67
2022/09/29 00:26:03;;;;;;;4.80;2.03;;;11.50;99.90;;;;;;6363467;28;20293;-66
2022/09/29 00:29:10;;;;;;;1.83;1.83;;;11.50;99.90;;;;;;6363905;28;20265;-67
2022/09/29 00:32:15;;;;;;;1.70;1.70;;;11.40;99.90;;;;;;6363330;28;20301;-67
2022/09/29 00:35:21;;;;;;;1.70;1.70;;;11.30;99.90;;;;;;6363343;28;20270;-67
2022/09/29 00:38:27;;;;;;;2.08;2.03;;;11.30;99.90;;;;;;6363415;28;20289;-67
2022/09/29 00:41:34;;;;;;;2.33;1.92;;;11.30;99.90;;;;;;6362999;28;20288;-67
2022/09/29 00:45:05;;;;;;;2.45;2.25;;;11.30;99.90;;;;;;6363548;28;20269;-67
2022/09/29 00:48:25;;;;;;;2.00;2.00;;;11.30;99.90;;;;;;6362865;28;20349;-67
2022/09/29 00:51:32;;;;;;;3.10;1.90;;;11.30;99.90;;;;;;6362579;28;20296;-67
2022/09/29 00:54:41;;;;;;;2.00;1.90;;;11.30;99.90;;;;;;6363364;28;20447;-67
2022/09/29 00:57:50;;;;;;;2.17;1.98;;;11.40;99.90;;;;;;6362093;28;20293;-68
2022/09/29 01:04:40;;;;;;;1.95;1.80;;;11.50;99.90;;;;;;6830251;23;20229;-68
2022/09/29 01:07:46;;;;;;;2.25;2.15;;;11.40;99.90;;;;;;6109952;29;20300;-68
2022/09/29 01:10:52;;;;;;;2.25;2.15;;;11.40;99.90;;;;;;6097496;29;20484;-66
2022/09/29 01:14:02;;;;;;;2.00;1.90;;;11.40;99.90;;;;;;6106503;29;20268;-67
2022/09/29 01:17:07;;;;;;;2.10;2.10;;;11.50;99.90;;;;;;6118022;28;20296;-66
2022/09/29 01:20:17;;;;;;;2.30;2.10;;;11.50;99.90;;;;;;6118480;29;20300;-67
2022/09/29 01:24:09;;;;;;;2.20;2.10;;;11.60;99.90;;;;;;6098490;29;20285;-67
2022/09/29 01:27:48;;;;;;;2.20;2.10;;;11.60;99.90;;;;;;6075084;29;20305;-67
2022/09/29 01:31:09;;;;;;;2.03;1.88;;;11.50;99.90;;;;;;6073417;29;20624;-68
2022/09/29 01:34:21;;;;;;;2.58;2.38;;;11.40;99.90;;;;;;6094219;29;20298;-66
2022/09/29 01:37:38;;;;;;;1.92;1.92;;;11.40;99.90;;;;;;6094009;29;20312;-66
2022/09/29 01:40:53;;;;;;;1.73;1.70;;;11.50;99.90;;;;;;6114309;29;20291;-66
2022/09/29 01:44:03;;;;;;;1.73;1.70;;;11.50;99.90;;;;;;6116719;29;20272;-66
2022/09/29 01:47:12;;;;;;;1.75;1.75;;;11.50;99.90;;;;;;6117432;29;20612;-67
2022/09/29 01:50:20;;;;;;;1.85;1.85;;;11.50;99.90;;;;;;6117445;29;20463;-67
2022/09/29 01:53:29;;;;;;;1.85;1.75;;;11.50;99.90;;;;;;6117849;29;20277;-67
2022/09/29 01:56:39;;;;;;;2.00;1.90;;;11.50;99.90;;;;;;6117327;29;20332;-67
2022/09/29 01:59:47;;;;;;;4.40;2.50;;;11.50;99.90;;;;;;6117752;29;20299;-67
2022/09/29 02:02:57;;;;;;;2.40;2.30;;;11.40;99.90;;;;;;6117278;29;20296;-67
2022/09/29 02:06:05;;;;;;;2.80;2.60;;;11.40;99.90;;;;;;6116599;29;20292;-67
2022/09/29 02:09:16;;;;;;;2.45;2.35;;;11.40;99.90;;;;;;6117644;29;20276;-67
2022/09/29 02:12:26;;;;;;;2.38;2.30;;;11.30;99.90;;;;;;6115778;28;20602;-68
2022/09/29 02:15:35;;;;;;;2.22;2.22;;;11.30;99.90;;;;;;6093585;29;20277;-67
2022/09/29 02:18:51;;;;;;;3.00;2.80;;;11.30;99.90;;;;;;6093732;29;20288;-67
2022/09/29 02:22:01;;;;;;;3.90;2.42;;;11.20;99.90;;;;;;6092600;29;20308;-67
2022/09/29 02:25:09;;;;;;;2.45;2.38;;;11.10;99.90;;;;;;6093741;29;20559;-67
2022/09/29 02:28:14;;;;;;;2.88;2.58;;;11.00;99.90;;;;;;6093272;29;20300;-67
2022/09/29 02:31:19;;;;;;;2.63;2.50;;;11.00;99.90;;;;;;6093260;29;20300;-67
2022/09/29 02:34:25;;;;;;;2.45;2.22;;;11.10;99.90;;;;;;6093816;29;20276;-67
2022/09/29 02:37:53;;;;;;;2.47;2.47;;;11.10;99.90;;;;;;6093308;29;20578;-67
2022/09/29 02:41:05;;;;;;;2.55;2.45;;;11.00;99.90;;;;;;6092919;29;20296;-67
2022/09/29 02:44:26;;;;;;;2.65;2.35;;;11.00;99.90;;;;;;6093621;29;20272;-68
2022/09/29 02:47:48;;;;;;;2.53;2.42;;;11.00;99.90;;;;;;6093086;29;20460;-66
2022/09/29 02:51:17;;;;;;;2.80;2.60;;;10.90;99.90;;;;;;6091797;29;20478;-66
2022/09/29 02:54:41;;;;;;;2.40;2.40;;;10.90;99.90;;;;;;6092306;29;20276;-66
2022/09/29 02:57:51;;;;;;;4.57;2.55;;;10.90;99.90;;;;;;6092945;29;20300;-67
2022/09/29 03:00:56;;;;;;;2.65;2.65;;;10.80;99.90;;;;;;6099767;29;20332;-67
2022/09/29 03:04:01;;;;;;;3.13;2.92;;;10.80;99.90;;;;;;6105411;29;20308;-67
2022/09/29 03:07:10;;;;;;;3.58;3.17;;;10.80;99.90;;;;;;6102757;29;20269;-67
2022/09/29 03:10:17;;;;;;;3.00;2.90;;;10.80;99.90;;;;;;6097417;29;20268;-67
2022/09/29 03:13:22;;;;;;;2.70;2.70;;;10.80;99.90;;;;;;6116224;29;20300;-67
2022/09/29 03:16:26;;;;;;;2.70;2.60;;;10.80;99.90;;;;;;6116856;29;20277;-67
2022/09/29 03:19:31;;;;;;;2.50;2.40;;;10.80;99.90;;;;;;6105903;29;20478;-67
2022/09/29 03:22:37;;;;;;;2.78;2.67;;;10.80;99.90;;;;;;6092704;29;20292;-68
2022/09/29 03:25:42;;;;;;;2.38;2.38;;;10.70;99.90;;;;;;6092950;29;20278;-67
2022/09/29 03:28:47;;;;;;;2.70;2.70;;;10.80;99.90;;;;;;6092278;29;20300;-67
2022/09/29 03:31:52;;;;;;;2.97;2.50;;;10.70;99.90;;;;;;6093086;29;20277;-68
2022/09/29 03:34:56;;;;;;;2.70;2.58;;;10.80;99.90;;;;;;6096320;29;20280;-68
2022/09/29 03:38:02;;;;;;;2.45;2.35;;;10.70;99.90;;;;;;6118087;28;20470;-67
2022/09/29 03:41:08;;;;;;;2.40;2.38;;;10.70;99.90;;;;;;6120798;29;20292;-67
2022/09/29 03:44:13;;;;;;;2.72;2.63;;;10.60;99.90;;;;;;6120253;29;20300;-67
2022/09/29 03:47:18;;;;;;;2.78;2.58;;;10.60;99.90;;;;;;6120113;28;20322;-67
2022/09/29 03:50:23;;;;;;;2.40;2.40;;;10.60;99.90;;;;;;6120568;29;20563;-67
2022/09/29 03:53:29;;;;;;;2.80;2.55;;;10.60;99.90;;;;;;6120115;28;20296;-67
2022/09/29 03:56:34;;;;;;;2.35;2.35;;;10.50;99.90;;;;;;6120430;29;20276;-66
2022/09/29 03:59:38;;;;;;;2.40;2.30;;;10.50;99.90;;;;;;6119825;28;20299;-66
2022/09/29 04:02:49;;;;;;;2.72;2.63;;;10.40;99.90;;;;;;6118513;29;20295;-67
2022/09/29 04:05:53;;;;;;;2.45;2.35;;;10.30;99.90;;;;;;6120028;29;20311;-66
2022/09/29 04:09:00;;;;;;;2.47;2.33;;;10.30;99.90;;;;;;6119668;29;20303;-66
2022/09/29 04:12:04;;;;;;;2.55;2.35;;;10.30;99.90;;;;;;6098190;29;20274;-67
2022/09/29 04:15:10;;;;;;;2.55;2.35;;;10.30;99.90;;;;;;6096100;29;20670;-67
2022/09/29 04:18:15;;;;;;;3.70;2.30;;;10.30;99.90;;;;;;6096070;29;20301;-67
2022/09/29 04:21:20;;;;;;;2.88;2.78;;;10.30;99.90;;;;;;6096245;29;20289;-67
2022/09/29 04:24:26;;;;;;;2.55;2.45;;;10.30;99.90;;;;;;6095961;29;20545;-67
2022/09/29 04:27:31;;;;;;;2.25;2.10;;;10.30;99.90;;;;;;6095820;29;20296;-67
2022/09/29 04:30:36;;;;;;;2.70;2.60;;;10.30;99.90;;;;;;6095694;29;20474;-68
2022/09/29 04:33:41;;;;;;;2.63;2.50;;;10.30;99.90;;;;;;6095687;29;20305;-67
2022/09/29 04:36:46;;;;;;;2.42;2.40;;;10.30;99.90;;;;;;6096119;29;20462;-67
2022/09/29 04:39:53;;;;;;;2.70;2.50;;;10.30;99.90;;;;;;6095344;29;20478;-67
2022/09/29 04:42:57;;;;;;;2.67;2.50;;;10.30;99.90;;;;;;6095148;29;20292;-67
2022/09/29 04:46:05;;;;;;;2.20;2.20;;;10.40;99.90;;;;;;6095729;29;20276;-68
2022/09/29 04:49:12;;;;;;;2.40;2.30;;;10.40;99.90;;;;;;6095182;29;20305;-67
2022/09/29 04:52:17;;;;;;;2.65;2.45;;;10.40;99.90;;;;;;6095020;29;20308;-67
2022/09/29 04:55:23;;;;;;;2.15;2.15;;;10.30;99.90;;;;;;6095620;29;20595;-67
2022/09/29 04:58:28;;;;;;;2.40;2.40;;;10.30;99.90;;;;;;6095003;29;20304;-68
2022/09/29 05:01:33;;;;;;;2.20;2.20;;;10.40;99.90;;;;;;6095286;29;20293;-67
2022/09/29 05:04:38;;;;;;;2.67;2.58;;;10.30;99.90;;;;;;6094828;29;20313;-67
2022/09/29 05:07:44;;;;;;;2.28;2.28;;;10.20;99.90;;;;;;6094489;29;20301;-67
2022/09/29 05:10:51;;;;;;;2.53;2.53;;;10.20;99.90;;;;;;6106021;29;20445;-67
2022/09/29 05:13:56;;;;;;;2.53;2.33;;;10.20;99.90;;;;;;6118045;29;20300;-67
2022/09/29 05:17:00;;;;;;;5.55;2.40;;;10.20;99.90;;;;;;6118200;28;20272;-67
2022/09/29 05:20:06;;;;;;;2.50;2.45;;;10.20;99.90;;;;;;6118370;29;20271;-67
2022/09/29 05:23:12;;;;;;;2.65;2.55;;;10.20;99.90;;;;;;6117656;28;20299;-67
2022/09/29 05:26:19;;;;;;;2.95;2.40;;;10.20;99.90;;;;;;6117821;29;20268;-67
2022/09/29 05:29:24;;;;;;;2.20;2.20;;;10.10;99.90;;;;;;6116434;29;20595;-67
2022/09/29 05:32:29;;;;;;;2.53;2.42;;;10.10;99.90;;;;;;6117384;29;20307;-67
2022/09/29 05:35:34;;;;;;;2.47;2.47;;;10.10;99.90;;;;;;6117809;29;20288;-66
2022/09/29 05:38:40;;;;;;;2.65;2.45;;;10.10;99.90;;;;;;6117509;29;20300;-67
2022/09/29 05:41:46;;;;;;;3.30;2.38;;;10.20;99.90;;;;;;6117619;29;20300;-67
2022/09/29 05:44:51;;;;;;;3.53;2.17;;;10.10;99.90;;;;;;6117061;29;20291;-67
2022/09/29 05:47:56;;;;;;;2.33;2.25;;;10.10;99.90;;;;;;6117351;29;20295;-68
2022/09/29 05:51:08;;;;;;;2.90;2.70;;;10.10;99.90;;;;;;6117919;29;20552;-68
2022/09/29 05:54:13;;;;;;;2.85;2.65;;;10.20;99.90;;;;;;6117034;29;20307;-68
2022/09/29 05:57:20;;;;;;;3.15;3.05;;;10.20;99.90;;;;;;6116474;29;20291;-68
2022/09/29 06:00:25;;;;;;;3.42;2.70;;;10.20;99.90;;;;;;6117813;29;20277;-67
2022/09/29 06:03:30;;;;;;;2.15;2.00;;;10.20;99.90;;;;;;6116500;29;20300;-68
2022/09/29 06:06:38;;;;;;;3.70;2.58;;;10.10;99.90;;;;;;6117624;29;20453;-67
2022/09/29 06:09:43;;;;;;;2.67;2.47;;;10.10;99.90;;;;;;6114396;29;20479;-67
2022/09/29 06:12:50;;;;;;;3.88;2.25;;;10.20;99.90;;;;;;6093291;29;20301;-66
2022/09/29 06:15:54;;;;;;;2.33;2.25;;;10.20;99.90;;;;;;6093690;29;20273;-67
2022/09/29 06:19:01;;;;;;;2.58;2.00;;;10.20;99.90;;;;;;6091972;29;20239;-67
2022/09/29 06:22:06;;;;;;;2.05;2.05;;;10.20;99.90;;;;;;6092606;29;20308;-67
2022/09/29 06:25:12;;;;;;;2.30;2.30;;;10.30;99.90;;;;;;6092995;29;20268;-66
2022/09/29 06:28:18;;;;;;;1.95;1.92;;;10.30;99.90;;;;;;6093238;29;20296;-67
2022/09/29 06:31:25;;;;;;;2.38;2.28;;;10.30;99.90;;;;;;6093041;29;20471;-67
2022/09/29 06:34:31;;;;;;;2.13;2.03;;;10.30;99.90;;;;;;6092790;29;20300;-67
2022/09/29 06:37:35;;;;;;;1.70;1.70;;;10.30;99.90;;;;;;6093109;29;20296;-67
2022/09/29 06:40:40;;;;;;;2.20;2.00;;;10.30;99.90;;;;;;6093081;29;20453;-67
2022/09/29 06:43:46;;;;;;;1.67;1.67;;;10.30;99.90;;;;;;6092797;29;20303;-67
2022/09/29 06:46:51;;;;;;;3.30;1.85;;;10.30;99.90;;;;;;6093121;29;20281;-68
2022/09/29 06:49:57;;;;;;;2.08;2.03;;;10.30;99.90;;;;;;6093058;29;20312;-67
2022/09/29 06:53:07;;;;;;;2.13;1.90;;;10.40;99.90;;;;;;6092920;29;20300;-67
2022/09/29 06:56:13;;;;;;;2.25;1.83;;;10.40;99.90;;;;;;6092967;29;20300;-67
2022/09/29 06:59:20;;;;;;;2.00;2.00;;;10.40;99.90;;;;;;6092622;29;20296;-67
2022/09/29 07:02:25;;;;;;;1.80;1.80;;;10.50;99.90;;;;;;6092639;29;20296;-68
2022/09/29 07:05:31;;;;;;;2.10;2.00;;;10.40;99.90;;;;;;6092804;29;20496;-68
2022/09/29 07:08:38;;;;;;;3.00;1.80;;;10.50;99.90;;;;;;6096687;29;20308;-67
2022/09/29 07:11:45;;;;;;;2.92;2.10;;;10.40;99.90;;;;;;6115501;29;20555;-67
2022/09/29 07:14:51;;;;;;;1.77;1.77;;;10.40;99.90;;;;;;6120858;29;20299;-67
2022/09/29 07:17:56;;;;;;;1.77;1.67;;;10.50;99.90;;;;;;6120172;29;20288;-67
2022/09/29 07:21:01;;;;;;;1.77;1.77;;;10.40;99.90;;;;;;6121078;29;20280;-67
2022/09/29 07:24:06;;;;;;;1.80;1.70;;;10.40;99.90;;;;;;6120252;29;20303;-67
2022/09/29 07:27:12;;;;;;;1.88;1.88;;;10.40;99.90;;;;;;6118970;29;20586;-67
2022/09/29 07:30:18;;;;;;;2.17;1.55;;;10.50;99.90;;;;;;6120853;29;20267;-67
2022/09/29 07:33:28;;;;;;;4.95;1.77;;;10.60;99.90;;;;;;6120575;29;20580;-67
2022/09/29 07:36:42;;;;;;;1.70;1.60;;;10.60;99.90;;;;;;6120848;29;20453;-67
2022/09/29 07:39:47;;;;;;;1.58;1.58;;;10.60;99.90;;;;;;6120384;29;20299;-67
2022/09/29 07:42:52;;;;;;;3.05;1.60;;;10.60;99.90;;;;;;6119844;29;20295;-67
2022/09/29 07:45:59;;;;;;;1.83;1.67;;;10.60;99.90;;;;;;6120563;29;20552;-66
2022/09/29 07:49:04;;;;;;;2.03;1.88;;;10.70;99.90;;;;;;6120210;29;20299;-66
2022/09/29 07:52:12;;;;;;;1.80;1.80;;;10.70;99.90;;;;;;6119449;29;20284;-67
2022/09/29 07:55:18;;;;;;;1.73;1.63;;;10.80;99.90;;;;;;6119903;29;20276;-67
2022/09/29 07:58:23;;;;;;;1.70;1.60;;;10.90;99.90;;;;;;6119956;29;20300;-67
2022/09/29 08:01:30;;;;;;;1.83;1.70;;;10.90;99.90;;;;;;6119904;29;20272;-67
2022/09/29 08:04:35;;;;;;;1.73;1.73;;;10.90;99.90;;;;;;6119058;29;20304;-67
2022/09/29 08:07:40;;;;;;;2.35;2.17;;;10.90;99.90;;;;;;6119390;29;20295;-66
2022/09/29 08:10:45;;;;;;;2.95;2.85;;;10.80;99.90;;;;;;6109407;29;20268;-66
2022/09/29 08:13:57;;;;;;;2.17;2.08;;;10.80;99.90;;;;;;6095783;29;20305;-66
2022/09/29 08:17:03;;;;;;;2.25;2.25;;;10.80;99.90;;;;;;6095886;29;20292;-67
2022/09/29 08:20:09;;;;;;;2.38;1.80;;;10.80;99.90;;;;;;6095497;29;20472;-67
2022/09/29 08:23:14;;;;;;;2.13;2.03;;;10.90;99.90;;;;;;6095630;29;20308;-67
2022/09/29 08:26:21;;;;;;;3.10;3.00;;;10.90;99.90;;;;;;6096006;29;20264;-68
2022/09/29 08:29:44;;;;;;;4.40;4.00;;;10.90;99.90;;;;;;6095716;29;20301;-67
2022/09/29 08:32:55;;;;;;;2.63;2.53;;;10.90;99.90;;;;;;6095661;29;20304;-67
2022/09/29 08:36:02;;;;;;;2.00;2.00;;;10.90;99.90;;;;;;6095986;29;20276;-67
2022/09/29 08:39:09;;;;;;;3.10;2.90;;;11.10;99.90;;;;;;6095490;29;20300;-67
2022/09/29 08:42:22;;;;;;;1.63;1.63;;;11.10;99.90;;;;;;6095245;29;20269;-67
2022/09/29 08:45:30;;;;;;;2.17;2.17;;;11.00;99.90;;;;;;6095742;29;20431;-67
2022/09/29 08:48:42;;;;;;;2.20;2.05;;;11.10;99.90;;;;;;6094900;29;20296;-67
2022/09/29 08:52:08;;;;;;;2.90;2.55;;;11.10;99.90;;;;;;6094912;29;20268;-67
2022/09/29 08:55:29;;;;;;;2.40;2.30;;;11.10;99.90;;;;;;6095163;29;20452;-67
2022/09/29 08:58:34;;;;;;;2.22;2.13;;;11.20;99.90;;;;;;6094896;29;20305;-66
2022/09/29 09:01:52;;;;;;;1.90;1.80;;;11.20;99.90;;;;;;6095388;29;20309;-67
2022/09/29 09:05:28;;;;;;;1.95;1.90;;;11.20;99.90;;;;;;6094131;29;20317;-67
2022/09/29 09:08:50;;;;;;;4.00;1.92;;;11.10;99.90;;;;;;6094642;29;20300;-68
2022/09/29 09:12:23;;;;;;;1.88;1.88;;;11.20;99.90;;;;;;6114163;29;20268;-68
2022/09/29 09:16:00;;;;;;;1.90;1.90;;;11.30;99.90;;;;;;6117657;29;20276;-68
2022/09/29 09:19:34;;;;;;;2.38;2.20;;;11.30;99.90;;;;;;6117880;29;20596;-68
2022/09/29 09:22:49;;;;;;;2.60;2.40;;;11.40;99.90;;;;;;6117437;29;20300;-68
2022/09/29 09:25:57;;;;;;;2.40;2.30;;;11.40;99.90;;;;;;6118191;29;20272;-68
2022/09/29 09:29:04;;;;;;;2.10;2.03;;;11.40;99.90;;;;;;6117780;29;20615;-68
2022/09/29 09:32:12;;;;;;;2.20;2.20;;;11.40;99.90;;;;;;6116906;29;20267;-68
2022/09/29 09:35:34;;;;;;;2.15;2.13;;;11.40;99.90;;;;;;6117988;29;20279;-68
2022/09/29 09:38:55;;;;;;;2.03;2.03;;;11.40;99.90;;;;;;6117454;29;20578;-68
2022/09/29 09:42:02;;;;;;;1.90;1.90;;;11.50;99.90;;;;;;6117436;29;20272;-68
2022/09/29 09:45:16;;;;;;;2.90;2.20;;;11.50;99.90;;;;;;6117899;29;20291;-68
2022/09/29 09:48:28;;;;;;;1.98;1.98;;;11.70;99.90;;;;;;6117295;29;20308;-68
2022/09/29 09:51:47;;;;;;;1.90;1.90;;;11.70;99.90;;;;;;6117614;29;20276;-68
2022/09/29 09:54:54;;;;;;;2.00;2.00;;;11.90;99.90;;;;;;6117300;29;20296;-68
2022/09/29 09:58:44;;;;;;;3.72;1.85;;;11.90;99.90;;;;;;6117171;29;20292;-68
2022/09/29 10:01:49;;;;;;;2.08;1.98;;;11.90;99.90;;;;;;6116984;29;20287;-68
2022/09/29 10:04:55;;;;;;;2.22;1.90;;;12.00;99.90;;;;;;6115744;29;20619;-68
2022/09/29 10:08:00;;;;;;;4.32;1.90;;;12.20;99.90;;;;;;6117204;29;20292;-67
2022/09/29 10:11:23;;;;;;;1.63;1.63;;;12.30;99.90;;;;;;6104126;29;20281;-68
2022/09/29 10:14:29;;;;;;;1.85;1.67;;;12.20;99.90;;;;;;6093317;29;20313;-68
2022/09/29 10:17:42;;;;;;;1.95;1.67;;;12.10;99.90;;;;;;6093018;29;20297;-68
2022/09/29 10:20:47;;;;;;;3.38;2.42;;;12.10;99.90;;;;;;6093390;29;20548;-68
2022/09/29 10:23:53;;;;;;;2.00;1.90;;;12.20;99.90;;;;;;6092973;29;20300;-68
2022/09/29 10:27:01;;;;;;;3.75;2.10;;;12.10;99.90;;;;;;6093216;29;20277;-67
2022/09/29 10:30:18;;;;;;;2.10;2.00;;;12.10;99.90;;;;;;6093381;29;20460;-67
2022/09/29 10:33:25;;;;;;;3.45;3.33;;;12.10;99.90;;;;;;6092813;29;20611;-67
2022/09/29 10:36:46;;;;;;;3.85;3.65;;;12.10;99.90;;;;;;6092963;29;20277;-67
2022/09/29 10:39:51;;;;;;;4.15;3.95;;;12.20;99.90;;;;;;6093004;29;20313;-67
2022/09/29 10:42:59;;;;;;;1.95;1.80;;;12.10;99.90;;;;;;6096031;29;20296;-67
2022/09/29 10:46:04;;;;;;;1.58;1.58;;;12.10;99.90;;;;;;6097977;29;20480;-68
2022/09/29 10:49:14;;;;;;;1.48;1.48;;;12.10;99.90;;;;;;6097943;29;20455;-68
2022/09/29 10:52:25;;;;;;;1.50;1.50;;;12.10;99.90;;;;;;6097680;29;20440;-68
2022/09/29 10:55:32;;;;;;;1.70;1.60;;;12.20;99.90;;;;;;6098105;29;20557;-68
2022/09/29 10:58:41;;;;;;;2.72;1.83;;;12.20;99.90;;;;;;6097617;29;20301;-67
2022/09/29 11:02:05;;;;;;;2.20;2.10;;;12.20;99.90;;;;;;6097414;29;20279;-67
2022/09/29 11:05:18;;;;;;;2.30;2.25;;;12.10;99.90;;;;;;6097435;29;20312;-67
2022/09/29 11:08:26;;;;;;;1.50;1.50;;;12.10;99.90;;;;;;6097258;29;20494;-67
2022/09/29 11:11:32;;;;;;;1.50;1.50;;;12.00;99.90;;;;;;6114126;29;20269;-66
2022/09/29 11:14:43;;;;;;;1.40;1.40;;;12.00;99.90;;;;;;6120984;29;20308;-67
2022/09/29 11:17:51;;;;;;;1.52;1.52;;;12.00;99.90;;;;;;6120828;29;20295;-67
2022/09/29 11:21:06;;;;;;;1.40;1.40;;;12.20;99.90;;;;;;6121127;29;20572;-68
2022/09/29 11:24:17;;;;;;;1.40;1.40;;;12.10;99.90;;;;;;6120437;29;20299;-68
2022/09/29 11:27:37;;;;;;;1.70;1.70;;;12.10;99.90;;;;;;6120475;29;20296;-68
2022/09/29 11:30:54;;;;;;;1.45;1.45;;;12.20;99.90;;;;;;6120723;29;20281;-67
2022/09/29 11:34:23;;;;;;;1.33;1.33;;;12.30;99.90;;;;;;6120465;29;20311;-68
2022/09/29 11:37:41;;;;;;;1.50;1.40;;;12.40;99.90;;;;;;6120439;29;20556;-68
2022/09/29 11:40:58;;;;;;;1.55;1.55;;;12.50;99.90;;;;;;6120162;29;20276;-68
2022/09/29 11:44:19;;;;;;;1.40;1.40;;;12.60;99.90;;;;;;6119872;29;20300;-68
2022/09/29 11:47:48;;;;;;;1.35;1.35;;;12.60;99.90;;;;;;6119611;29;20288;-68
2022/09/29 11:50:59;;;;;;;2.05;1.70;;;12.60;99.90;;;;;;6120238;29;20456;-68
2022/09/29 11:54:21;;;;;;;1.90;1.90;;;12.70;99.90;;;;;;6118750;29;20299;-68
2022/09/29 11:57:56;;;;;;;1.30;1.30;;;12.70;99.90;;;;;;6119369;29;20319;-68
2022/09/29 12:01:16;;;;;;;1.20;1.20;;;12.70;99.90;;;;;;6119509;29;20271;-68
2022/09/29 12:04:35;;;;;;;1.42;1.40;;;12.60;99.90;;;;;;6119130;29;20308;-68
2022/09/29 12:07:48;;;;;;;1.30;1.30;;;12.70;99.90;;;;;;6119655;29;20296;-68
2022/09/29 12:10:59;;;;;;;1.10;1.10;;;12.60;99.90;;;;;;6108092;29;20280;-68
2022/09/29 12:14:16;;;;;;;2.55;1.33;;;12.50;99.90;;;;;;6095696;29;20400;-67
2022/09/29 12:17:21;;;;;;;1.42;1.42;;;12.40;99.90;;;;;;6094448;29;20482;-67
2022/09/29 12:20:33;;;;;;;1.40;1.33;;;12.40;99.90;;;;;;6095791;29;20276;-67
2022/09/29 12:23:39;;;;;;;1.20;1.20;;;12.50;99.90;;;;;;6095625;29;20300;-67
2022/09/29 12:26:46;;;;;;;1.20;1.20;;;12.50;99.90;;;;;;6096021;29;20300;-67
2022/09/29 12:29:55;;;;;;;1.25;1.25;;;12.60;99.90;;;;;;6095102;29;20297;-67
2022/09/29 12:33:05;;;;;;;1.45;1.25;;;12.60;99.90;;;;;;6095602;29;20296;-67
2022/09/29 12:36:49;;;;;;;1.00;1.00;;;12.50;99.90;;;;;;6095413;29;20284;-67
2022/09/29 12:40:02;;;;;;;1.50;1.00;;;12.40;99.90;;;;;;6095445;29;20434;-67
2022/09/29 12:43:14;;;;;;;1.10;1.10;;;12.30;99.90;;;;;;6095140;29;20309;-67
2022/09/29 12:46:25;;;;;;;1.55;1.20;;;12.30;99.90;;;;;;6095036;29;20317;-67
2022/09/29 12:49:37;;;;;;;2.75;1.00;;;12.40;99.90;;;;;;6093888;29;20460;-66
2022/09/29 12:52:50;;;;;;;1.10;1.10;;;12.40;99.90;;;;;;6094972;29;20481;-67
2022/09/29 12:55:58;;;;;;;1.95;1.00;;;12.50;99.90;;;;;;6094842;29;20296;-67
2022/09/29 12:59:07;;;;;;;1.00;1.00;;;12.50;99.90;;;;;;6094629;29;20304;-67
2022/09/29 13:02:35;;;;;;;1.10;1.10;;;12.50;99.90;;;;;;6094694;29;20269;-67
2022/09/29 13:06:33;;;;;;;1.10;1.10;;;12.50;99.90;;;;;;6094584;29;20304;-67
2022/09/29 13:09:57;;;;;;;1.20;1.20;;;12.40;99.90;;;;;;6085277;29;20493;-67
2022/09/29 13:13:45;;;;;;;1.10;1.10;;;12.40;99.90;;;;;;6117949;28;20300;-67
2022/09/29 13:17:08;;;;;;;0.93;0.93;;;12.40;99.90;;;;;;6118471;29;20280;-66
2022/09/29 13:20:34;;;;;;;1.00;1.00;;;12.30;99.90;;;;;;6117262;29;20568;-67
2022/09/29 13:24:06;;;;;;;1.08;1.08;;;12.30;99.90;;;;;;6117508;29;20301;-67
2022/09/29 13:27:29;;;;;;;1.15;1.15;;;12.20;99.90;;;;;;6117480;29;20476;-67
2022/09/29 13:30:35;;;;;;;0.95;0.95;;;12.20;99.90;;;;;;6118175;29;20455;-66
2022/09/29 13:33:45;;;;;;;1.00;1.00;;;12.20;99.90;;;;;;6117653;28;20304;-67
2022/09/29 13:36:52;;;;;;;1.45;1.08;;;12.20;99.90;;;;;;6117883;29;20292;-67
2022/09/29 13:40:00;;;;;;;1.00;1.00;;;12.20;99.90;;;;;;6117157;29;20299;-67
2022/09/29 13:43:40;;;;;;;1.00;1.00;;;12.20;99.90;;;;;;6117428;29;20317;-66
2022/09/29 13:46:45;;;;;;;1.10;1.10;;;12.30;99.90;;;;;;6117550;29;20292;-66
2022/09/29 13:49:49;;;;;;;1.25;1.20;;;12.20;99.90;;;;;;6117098;29;20295;-67
2022/09/29 13:52:55;;;;;;;1.45;1.10;;;12.20;99.90;;;;;;6116880;29;20312;-67
2022/09/29 13:56:12;;;;;;;1.00;1.00;;;12.10;99.90;;;;;;6116962;29;20463;-67
2022/09/29 13:59:22;;;;;;;1.10;1.10;;;12.10;99.90;;;;;;6117021;29;20308;-67
2022/09/29 14:02:34;;;;;;;2.08;1.17;;;12.00;99.90;;;;;;6116539;29;20611;-67
2022/09/29 14:06:04;;;;;;;1.20;1.20;;;12.10;99.90;;;;;;6117043;29;20607;-67
2022/09/29 14:09:32;;;;;;;1.73;1.30;;;12.40;99.90;;;;;;6116192;29;20300;-66
2022/09/29 14:12:37;;;;;;;2.25;1.27;;;12.60;99.90;;;;;;6092912;29;20292;-66
2022/09/29 14:15:46;;;;;;;1.00;1.00;;;12.40;99.90;;;;;;6092767;29;20373;-67
2022/09/29 14:18:55;;;;;;;1.20;1.20;;;12.20;99.90;;;;;;6093138;29;20292;-66
2022/09/29 14:22:00;;;;;;;4.43;1.23;;;12.20;99.90;;;;;;6093271;29;20277;-67
2022/09/29 14:25:29;;;;;;;1.05;1.05;;;12.00;99.90;;;;;;6093709;29;20272;-67
2022/09/29 14:28:40;;;;;;;1.20;1.20;;;11.90;99.90;;;;;;6092348;29;20313;-67
2022/09/29 14:31:51;;;;;;;1.20;1.20;;;11.90;99.90;;;;;;6093664;29;20276;-67
2022/09/29 14:34:56;;;;;;;2.78;1.48;;;11.90;99.90;;;;;;6093149;29;20301;-67
2022/09/29 14:38:05;;;;;;;1.50;1.50;;;11.80;99.90;;;;;;6092413;29;20366;-67
2022/09/29 14:41:30;;;;;;;2.13;2.13;;;11.80;99.90;;;;;;6092971;29;20276;-67
2022/09/29 14:55:04;;;;;;;1.50;1.50;;;11.70;99.90;;;;;;6092766;29;20305;-68
2022/09/29 14:58:27;;;;;;;1.35;1.35;;;11.70;99.90;;;;;;6092742;29;20300;-67
2022/09/29 15:01:34;;;;;;;1.30;1.30;;;11.80;99.90;;;;;;6092773;29;20280;-68
2022/09/29 15:04:41;;;;;;;1.63;1.63;;;11.80;99.90;;;;;;6092210;29;20308;-66
2022/09/29 15:07:45;;;;;;;1.65;1.52;;;11.90;99.90;;;;;;6092322;29;20296;-66
2022/09/29 15:10:50;;;;;;;1.20;1.20;;;11.80;99.90;;;;;;6103549;29;20326;-66
2022/09/29 15:13:56;;;;;;;1.98;1.42;;;11.90;99.90;;;;;;6115857;29;20305;-67
2022/09/29 15:17:08;;;;;;;1.30;1.30;;;11.80;99.90;;;;;;6115963;29;20275;-67
2022/09/29 15:20:22;;;;;;;1.48;1.48;;;11.80;99.90;;;;;;6116456;29;20275;-67
2022/09/29 15:24:07;;;;;;;1.30;1.30;;;11.80;99.90;;;;;;6115742;29;20296;-66
2022/09/29 15:27:14;;;;;;;1.40;1.40;;;11.80;99.90;;;;;;6108816;28;20296;-68
2022/09/29 15:30:23;;;;;;;1.30;1.30;;;11.70;99.90;;;;;;6120730;29;20276;-68
2022/09/29 15:33:30;;;;;;;1.13;1.13;;;11.70;99.90;;;;;;6120296;29;20291;-68
2022/09/29 15:36:38;;;;;;;3.42;3.33;;;11.70;99.90;;;;;;6120306;29;20450;-68
2022/09/29 15:39:48;;;;;;;2.45;2.45;;;11.70;99.90;;;;;;6119842;29;20304;-68
2022/09/29 15:42:54;;;;;;;1.60;1.45;;;11.70;99.90;;;;;;6120018;29;20303;-66
2022/09/29 15:46:02;;;;;;;1.50;1.50;;;11.50;99.90;;;;;;6120447;29;20268;-67
2022/09/29 15:49:14;;;;;;;1.58;1.58;;;11.50;99.90;;;;;;6119881;29;20300;-67
2022/09/29 15:52:26;;;;;;;1.38;1.38;;;11.50;99.90;;;;;;6119711;29;20297;-67
2022/09/29 15:55:32;;;;;;;1.50;1.50;;;11.50;99.90;;;;;;6120257;29;20544;-67
2022/09/29 15:58:46;;;;;;;1.50;1.50;;;11.50;99.90;;;;;;6119828;28;20355;-67
2022/09/29 16:01:51;;;;;;;1.60;1.60;;;11.50;99.90;;;;;;6120061;29;20273;-67
2022/09/29 16:05:00;;;;;;;2.05;1.70;;;11.50;99.90;;;;;;6119382;29;20312;-67
2022/09/29 16:08:14;;;;;;;1.52;1.52;;;11.50;99.90;;;;;;6119271;28;20305;-68
2022/09/29 16:11:24;;;;;;;2.28;1.77;;;11.40;99.90;;;;;;6105044;29;20337;-67
2022/09/29 16:14:29;;;;;;;2.58;2.40;;;11.40;99.90;;;;;;6095695;29;20305;-67
2022/09/29 16:17:34;;;;;;;1.70;1.70;;;11.40;99.90;;;;;;6095742;29;20596;-67
2022/09/29 16:20:43;;;;;;;1.75;1.67;;;11.30;99.90;;;;;;6096222;29;20272;-68
2022/09/29 16:23:59;;;;;;;2.10;1.95;;;11.40;99.90;;;;;;6095495;29;20300;-68
2022/09/29 16:27:07;;;;;;;1.60;1.60;;;11.40;99.90;;;;;;6095497;29;20277;-67
2022/09/29 16:30:25;;;;;;;1.70;1.70;;;11.30;99.90;;;;;;6095896;29;20276;-67
2022/09/29 16:33:30;;;;;;;3.75;1.98;;;11.20;99.90;;;;;;6095524;29;20301;-67
2022/09/29 16:36:36;;;;;;;2.20;2.00;;;11.20;99.90;;;;;;6095687;29;20276;-67
2022/09/29 16:39:44;;;;;;;2.28;2.13;;;11.20;99.90;;;;;;6094688;29;20304;-66
2022/09/29 16:42:53;;;;;;;2.58;2.05;;;11.20;99.90;;;;;;6095080;29;20301;-66
2022/09/29 16:45:59;;;;;;;2.15;2.05;;;11.20;99.90;;;;;;6095703;29;20273;-66
2022/09/29 16:49:04;;;;;;;2.03;2.03;;;11.20;99.90;;;;;;6095084;29;20308;-67